sensor_id;sensor_type;location;lat;lon;timestamp;P1;durP1;ratioP1;P2;durP2;ratioP2
66402;SDS011;53212;52.112;5.144;2023-05-07T00:00:32;15.00;;;13.60;;
66402;SDS011;53212;52.112;5.144;2023-05-07T00:02:59;14.50;;;13.20;;
66402;SDS011;53212;52.112;5.144;2023-05-07T00:05:24;14.50;;;13.20;;
66402;SDS011;53212;52.112;5.144;2023-05-07T00:07:50;14.50;;;13.20;;
66402;SDS011;53212;52.112;5.144;2023-05-07T00:10:17;14.70;;;13.30;;
66402;SDS011;53212;52.112;5.144;2023-05-07T00:12:43;15.10;;;13.70;;
66402;SDS011;53212;52.112;5.144;2023-05-07T00:15:09;14.10;;;12.70;;
66402;SDS011;53212;52.112;5.144;2023-05-07T00:17:34;15.00;;;13.50;;
66402;SDS011;53212;52.112;5.144;2023-05-07T00:20:00;14.50;;;13.20;;
66402;SDS011;53212;52.112;5.144;2023-05-07T00:22:26;15.00;;;12.30;;
66402;SDS011;53212;52.112;5.144;2023-05-07T00:24:51;14.40;;;12.90;;
66402;SDS011;53212;52.112;5.144;2023-05-07T00:27:17;14.20;;;12.70;;
66402;SDS011;53212;52.112;5.144;2023-05-07T00:29:42;14.20;;;12.70;;
66402;SDS011;53212;52.112;5.144;2023-05-07T00:32:08;12.90;;;11.40;;
66402;SDS011;53212;52.112;5.144;2023-05-07T00:34:33;13.00;;;11.70;;
66402;SDS011;53212;52.112;5.144;2023-05-07T00:36:59;12.80;;;11.50;;
66402;SDS011;53212;52.112;5.144;2023-05-07T00:39:24;12.10;;;10.50;;
66402;SDS011;53212;52.112;5.144;2023-05-07T00:41:50;11.40;;;10.30;;
66402;SDS011;53212;52.112;5.144;2023-05-07T00:44:16;11.40;;;10.10;;
66402;SDS011;53212;52.112;5.144;2023-05-07T00:46:43;10.60;;;9.70;;
66402;SDS011;53212;52.112;5.144;2023-05-07T00:49:09;10.40;;;9.30;;
66402;SDS011;53212;52.112;5.144;2023-05-07T00:51:35;10.00;;;9.10;;
66402;SDS011;53212;52.112;5.144;2023-05-07T00:54:02;10.10;;;9.10;;
66402;SDS011;53212;52.112;5.144;2023-05-07T00:56:28;9.70;;;8.80;;
66402;SDS011;53212;52.112;5.144;2023-05-07T00:58:53;9.70;;;8.90;;
66402;SDS011;53212;52.112;5.144;2023-05-07T01:01:19;9.40;;;8.50;;
66402;SDS011;53212;52.112;5.144;2023-05-07T01:03:45;9.40;;;8.30;;
66402;SDS011;53212;52.112;5.144;2023-05-07T01:06:10;8.80;;;8.00;;
66402;SDS011;53212;52.112;5.144;2023-05-07T01:08:38;9.60;;;8.20;;
66402;SDS011;53212;52.112;5.144;2023-05-07T01:11:06;8.10;;;7.30;;
66402;SDS011;53212;52.112;5.144;2023-05-07T01:13:34;8.80;;;8.00;;
66402;SDS011;53212;52.112;5.144;2023-05-07T01:16:00;8.60;;;7.70;;
66402;SDS011;53212;52.112;5.144;2023-05-07T01:18:26;8.30;;;7.50;;
66402;SDS011;53212;52.112;5.144;2023-05-07T01:20:52;7.60;;;6.80;;
66402;SDS011;53212;52.112;5.144;2023-05-07T01:23:18;8.30;;;7.50;;
66402;SDS011;53212;52.112;5.144;2023-05-07T01:25:51;11.80;;;7.50;;
66402;SDS011;53212;52.112;5.144;2023-05-07T01:28:18;7.70;;;6.90;;
66402;SDS011;53212;52.112;5.144;2023-05-07T01:30:46;8.30;;;7.50;;
66402;SDS011;53212;52.112;5.144;2023-05-07T01:33:13;8.50;;;7.70;;
66402;SDS011;53212;52.112;5.144;2023-05-07T01:35:45;9.50;;;7.80;;
66402;SDS011;53212;52.112;5.144;2023-05-07T01:38:13;8.10;;;7.30;;
66402;SDS011;53212;52.112;5.144;2023-05-07T01:40:39;8.30;;;7.50;;
66402;SDS011;53212;52.112;5.144;2023-05-07T01:43:05;7.40;;;6.80;;
66402;SDS011;53212;52.112;5.144;2023-05-07T01:45:31;8.80;;;7.40;;
66402;SDS011;53212;52.112;5.144;2023-05-07T01:47:58;10.10;;;7.20;;
66402;SDS011;53212;52.112;5.144;2023-05-07T01:50:24;7.30;;;6.60;;
66402;SDS011;53212;52.112;5.144;2023-05-07T01:52:50;9.30;;;7.50;;
66402;SDS011;53212;52.112;5.144;2023-05-07T01:55:16;7.30;;;6.70;;
66402;SDS011;53212;52.112;5.144;2023-05-07T01:57:41;8.00;;;7.20;;
66402;SDS011;53212;52.112;5.144;2023-05-07T02:00:07;7.80;;;7.10;;
66402;SDS011;53212;52.112;5.144;2023-05-07T02:02:34;7.80;;;7.10;;
66402;SDS011;53212;52.112;5.144;2023-05-07T02:05:00;7.40;;;6.60;;
66402;SDS011;53212;52.112;5.144;2023-05-07T02:07:27;7.80;;;7.00;;
66402;SDS011;53212;52.112;5.144;2023-05-07T02:09:53;7.10;;;6.50;;
66402;SDS011;53212;52.112;5.144;2023-05-07T02:12:20;8.20;;;7.10;;
66402;SDS011;53212;52.112;5.144;2023-05-07T02:14:46;7.30;;;6.50;;
66402;SDS011;53212;52.112;5.144;2023-05-07T02:17:12;7.10;;;6.30;;
66402;SDS011;53212;52.112;5.144;2023-05-07T02:19:37;8.20;;;6.20;;
66402;SDS011;53212;52.112;5.144;2023-05-07T02:22:02;8.40;;;6.60;;
66402;SDS011;53212;52.112;5.144;2023-05-07T02:24:28;6.50;;;5.90;;
66402;SDS011;53212;52.112;5.144;2023-05-07T02:26:53;6.30;;;5.80;;
66402;SDS011;53212;52.112;5.144;2023-05-07T02:29:19;7.20;;;5.80;;
66402;SDS011;53212;52.112;5.144;2023-05-07T02:31:44;7.40;;;6.00;;
66402;SDS011;53212;52.112;5.144;2023-05-07T02:34:09;6.10;;;5.60;;
66402;SDS011;53212;52.112;5.144;2023-05-07T02:36:35;6.00;;;5.60;;
66402;SDS011;53212;52.112;5.144;2023-05-07T02:39:01;7.10;;;6.00;;
66402;SDS011;53212;52.112;5.144;2023-05-07T02:41:27;7.40;;;6.10;;
66402;SDS011;53212;52.112;5.144;2023-05-07T02:43:53;7.00;;;6.20;;
66402;SDS011;53212;52.112;5.144;2023-05-07T02:46:18;6.60;;;6.00;;
66402;SDS011;53212;52.112;5.144;2023-05-07T02:48:44;6.30;;;5.80;;
66402;SDS011;53212;52.112;5.144;2023-05-07T02:51:09;7.00;;;6.10;;
66402;SDS011;53212;52.112;5.144;2023-05-07T02:53:35;7.20;;;6.30;;
66402;SDS011;53212;52.112;5.144;2023-05-07T02:56:01;7.80;;;6.50;;
66402;SDS011;53212;52.112;5.144;2023-05-07T02:58:27;7.50;;;6.70;;
66402;SDS011;53212;52.112;5.144;2023-05-07T03:00:53;6.90;;;6.00;;
66402;SDS011;53212;52.112;5.144;2023-05-07T03:03:20;6.90;;;6.20;;
66402;SDS011;53212;52.112;5.144;2023-05-07T03:05:45;7.50;;;6.00;;
66402;SDS011;53212;52.112;5.144;2023-05-07T03:08:11;7.90;;;7.10;;
66402;SDS011;53212;52.112;5.144;2023-05-07T03:10:37;7.70;;;6.90;;
66402;SDS011;53212;52.112;5.144;2023-05-07T03:13:03;7.20;;;6.40;;
66402;SDS011;53212;52.112;5.144;2023-05-07T03:15:28;7.70;;;6.90;;
66402;SDS011;53212;52.112;5.144;2023-05-07T03:17:54;8.00;;;7.00;;
66402;SDS011;53212;52.112;5.144;2023-05-07T03:20:20;7.20;;;6.70;;
66402;SDS011;53212;52.112;5.144;2023-05-07T03:22:46;7.60;;;6.90;;
66402;SDS011;53212;52.112;5.144;2023-05-07T03:25:12;7.10;;;6.50;;
66402;SDS011;53212;52.112;5.144;2023-05-07T03:27:37;6.90;;;6.30;;
66402;SDS011;53212;52.112;5.144;2023-05-07T03:30:03;7.60;;;6.90;;
66402;SDS011;53212;52.112;5.144;2023-05-07T03:32:29;7.20;;;6.60;;
66402;SDS011;53212;52.112;5.144;2023-05-07T03:34:54;7.20;;;6.50;;
66402;SDS011;53212;52.112;5.144;2023-05-07T03:37:20;7.40;;;6.80;;
66402;SDS011;53212;52.112;5.144;2023-05-07T03:39:46;6.90;;;6.20;;
66402;SDS011;53212;52.112;5.144;2023-05-07T03:42:12;7.60;;;6.80;;
66402;SDS011;53212;52.112;5.144;2023-05-07T03:44:37;7.80;;;7.10;;
66402;SDS011;53212;52.112;5.144;2023-05-07T03:47:03;9.10;;;6.90;;
66402;SDS011;53212;52.112;5.144;2023-05-07T03:49:29;7.80;;;7.10;;
66402;SDS011;53212;52.112;5.144;2023-05-07T03:51:54;7.70;;;7.00;;
66402;SDS011;53212;52.112;5.144;2023-05-07T03:54:20;7.60;;;6.90;;
66402;SDS011;53212;52.112;5.144;2023-05-07T03:56:46;7.80;;;6.70;;
66402;SDS011;53212;52.112;5.144;2023-05-07T03:59:14;8.80;;;7.40;;
66402;SDS011;53212;52.112;5.144;2023-05-07T04:01:40;9.10;;;7.60;;
66402;SDS011;53212;52.112;5.144;2023-05-07T04:04:05;8.20;;;7.30;;
66402;SDS011;53212;52.112;5.144;2023-05-07T04:06:31;8.20;;;7.60;;
66402;SDS011;53212;52.112;5.144;2023-05-07T04:08:56;8.70;;;7.90;;
66402;SDS011;53212;52.112;5.144;2023-05-07T04:11:22;8.40;;;7.60;;
66402;SDS011;53212;52.112;5.144;2023-05-07T04:13:47;8.80;;;7.80;;
66402;SDS011;53212;52.112;5.144;2023-05-07T04:16:13;8.00;;;7.30;;
66402;SDS011;53212;52.112;5.144;2023-05-07T04:18:38;8.90;;;8.20;;
66402;SDS011;53212;52.112;5.144;2023-05-07T04:21:04;9.00;;;8.10;;
66402;SDS011;53212;52.112;5.144;2023-05-07T04:23:30;9.50;;;8.00;;
66402;SDS011;53212;52.112;5.144;2023-05-07T04:25:56;8.90;;;8.10;;
66402;SDS011;53212;52.112;5.144;2023-05-07T04:28:22;9.60;;;8.80;;
66402;SDS011;53212;52.112;5.144;2023-05-07T04:30:49;10.00;;;9.10;;
66402;SDS011;53212;52.112;5.144;2023-05-07T04:33:15;10.80;;;9.70;;
66402;SDS011;53212;52.112;5.144;2023-05-07T04:35:43;10.90;;;10.00;;
66402;SDS011;53212;52.112;5.144;2023-05-07T04:38:08;11.00;;;10.00;;
66402;SDS011;53212;52.112;5.144;2023-05-07T04:40:35;10.60;;;9.50;;
66402;SDS011;53212;52.112;5.144;2023-05-07T04:43:01;10.70;;;9.80;;
66402;SDS011;53212;52.112;5.144;2023-05-07T04:45:27;10.50;;;9.40;;
66402;SDS011;53212;52.112;5.144;2023-05-07T04:47:52;11.20;;;9.80;;
66402;SDS011;53212;52.112;5.144;2023-05-07T04:50:18;11.00;;;10.00;;
66402;SDS011;53212;52.112;5.144;2023-05-07T04:52:44;11.40;;;10.30;;
66402;SDS011;53212;52.112;5.144;2023-05-07T04:55:10;14.10;;;10.70;;
66402;SDS011;53212;52.112;5.144;2023-05-07T04:57:36;11.10;;;10.20;;
66402;SDS011;53212;52.112;5.144;2023-05-07T05:00:03;13.00;;;11.00;;
66402;SDS011;53212;52.112;5.144;2023-05-07T05:02:29;11.80;;;10.70;;
66402;SDS011;53212;52.112;5.144;2023-05-07T05:04:54;10.80;;;9.90;;
66402;SDS011;53212;52.112;5.144;2023-05-07T05:07:20;11.90;;;10.70;;
66402;SDS011;53212;52.112;5.144;2023-05-07T05:09:45;11.20;;;10.30;;
66402;SDS011;53212;52.112;5.144;2023-05-07T05:12:11;11.30;;;10.30;;
66402;SDS011;53212;52.112;5.144;2023-05-07T05:14:36;11.00;;;10.10;;
66402;SDS011;53212;52.112;5.144;2023-05-07T05:17:02;11.70;;;10.60;;
66402;SDS011;53212;52.112;5.144;2023-05-07T05:19:27;11.10;;;10.10;;
66402;SDS011;53212;52.112;5.144;2023-05-07T05:21:52;11.20;;;10.20;;
66402;SDS011;53212;52.112;5.144;2023-05-07T05:24:18;11.60;;;10.40;;
66402;SDS011;53212;52.112;5.144;2023-05-07T05:26:43;10.40;;;9.50;;
66402;SDS011;53212;52.112;5.144;2023-05-07T05:29:09;10.80;;;9.90;;
66402;SDS011;53212;52.112;5.144;2023-05-07T05:31:35;12.40;;;11.10;;
66402;SDS011;53212;52.112;5.144;2023-05-07T05:34:02;11.10;;;10.00;;
66402;SDS011;53212;52.112;5.144;2023-05-07T05:36:28;11.20;;;10.20;;
66402;SDS011;53212;52.112;5.144;2023-05-07T05:38:53;10.80;;;9.70;;
66402;SDS011;53212;52.112;5.144;2023-05-07T05:41:19;11.00;;;9.90;;
66402;SDS011;53212;52.112;5.144;2023-05-07T05:43:45;10.40;;;9.40;;
66402;SDS011;53212;52.112;5.144;2023-05-07T05:46:10;10.50;;;9.50;;
66402;SDS011;53212;52.112;5.144;2023-05-07T05:48:36;10.00;;;9.10;;
66402;SDS011;53212;52.112;5.144;2023-05-07T05:51:02;10.70;;;9.60;;
66402;SDS011;53212;52.112;5.144;2023-05-07T05:53:27;11.10;;;9.60;;
66402;SDS011;53212;52.112;5.144;2023-05-07T05:55:53;11.00;;;9.90;;
66402;SDS011;53212;52.112;5.144;2023-05-07T05:58:18;10.80;;;9.80;;
66402;SDS011;53212;52.112;5.144;2023-05-07T06:00:46;11.60;;;10.50;;
66402;SDS011;53212;52.112;5.144;2023-05-07T06:03:13;10.40;;;9.50;;
66402;SDS011;53212;52.112;5.144;2023-05-07T06:05:38;11.60;;;10.50;;
66402;SDS011;53212;52.112;5.144;2023-05-07T06:08:04;10.30;;;9.30;;
66402;SDS011;53212;52.112;5.144;2023-05-07T06:10:29;10.80;;;9.80;;
66402;SDS011;53212;52.112;5.144;2023-05-07T06:12:55;12.50;;;10.60;;
66402;SDS011;53212;52.112;5.144;2023-05-07T06:15:21;11.10;;;9.90;;
66402;SDS011;53212;52.112;5.144;2023-05-07T06:17:46;11.40;;;10.30;;
66402;SDS011;53212;52.112;5.144;2023-05-07T06:20:12;11.00;;;10.10;;
66402;SDS011;53212;52.112;5.144;2023-05-07T06:22:37;10.70;;;9.70;;
66402;SDS011;53212;52.112;5.144;2023-05-07T06:25:03;10.90;;;9.90;;
66402;SDS011;53212;52.112;5.144;2023-05-07T06:27:28;11.30;;;10.20;;
66402;SDS011;53212;52.112;5.144;2023-05-07T06:29:53;11.60;;;10.30;;
66402;SDS011;53212;52.112;5.144;2023-05-07T06:32:19;11.20;;;9.80;;
66402;SDS011;53212;52.112;5.144;2023-05-07T06:34:45;10.50;;;9.60;;
66402;SDS011;53212;52.112;5.144;2023-05-07T06:37:10;11.30;;;10.20;;
66402;SDS011;53212;52.112;5.144;2023-05-07T06:39:35;10.60;;;9.60;;
66402;SDS011;53212;52.112;5.144;2023-05-07T06:42:01;10.70;;;9.70;;
66402;SDS011;53212;52.112;5.144;2023-05-07T06:44:27;13.00;;;10.20;;
66402;SDS011;53212;52.112;5.144;2023-05-07T06:46:53;10.00;;;9.10;;
66402;SDS011;53212;52.112;5.144;2023-05-07T06:49:18;10.50;;;9.50;;
66402;SDS011;53212;52.112;5.144;2023-05-07T06:51:43;11.10;;;9.90;;
66402;SDS011;53212;52.112;5.144;2023-05-07T06:54:09;11.10;;;9.40;;
66402;SDS011;53212;52.112;5.144;2023-05-07T06:56:34;10.40;;;9.50;;
66402;SDS011;53212;52.112;5.144;2023-05-07T06:59:01;13.10;;;9.80;;
66402;SDS011;53212;52.112;5.144;2023-05-07T07:01:27;11.20;;;10.10;;
66402;SDS011;53212;52.112;5.144;2023-05-07T07:03:53;11.30;;;10.20;;
66402;SDS011;53212;52.112;5.144;2023-05-07T07:06:18;10.70;;;9.70;;
66402;SDS011;53212;52.112;5.144;2023-05-07T07:08:44;11.00;;;10.00;;
66402;SDS011;53212;52.112;5.144;2023-05-07T07:11:09;10.70;;;9.70;;
66402;SDS011;53212;52.112;5.144;2023-05-07T07:13:35;12.30;;;9.90;;
66402;SDS011;53212;52.112;5.144;2023-05-07T07:16:01;11.00;;;9.90;;
66402;SDS011;53212;52.112;5.144;2023-05-07T07:18:27;11.40;;;9.20;;
66402;SDS011;53212;52.112;5.144;2023-05-07T07:20:52;9.50;;;8.50;;
66402;SDS011;53212;52.112;5.144;2023-05-07T07:23:18;9.90;;;9.00;;
66402;SDS011;53212;52.112;5.144;2023-05-07T07:25:43;10.30;;;8.60;;
66402;SDS011;53212;52.112;5.144;2023-05-07T07:28:09;10.90;;;8.50;;
66402;SDS011;53212;52.112;5.144;2023-05-07T07:30:35;11.00;;;9.90;;
66402;SDS011;53212;52.112;5.144;2023-05-07T07:33:01;10.10;;;9.10;;
66402;SDS011;53212;52.112;5.144;2023-05-07T07:35:31;10.10;;;8.70;;
66402;SDS011;53212;52.112;5.144;2023-05-07T07:37:57;10.40;;;9.40;;
66402;SDS011;53212;52.112;5.144;2023-05-07T07:40:23;9.70;;;8.80;;
66402;SDS011;53212;52.112;5.144;2023-05-07T07:42:50;10.10;;;8.80;;
66402;SDS011;53212;52.112;5.144;2023-05-07T07:45:16;8.70;;;7.90;;
66402;SDS011;53212;52.112;5.144;2023-05-07T07:47:41;9.30;;;8.50;;
66402;SDS011;53212;52.112;5.144;2023-05-07T07:50:07;9.60;;;8.60;;
66402;SDS011;53212;52.112;5.144;2023-05-07T07:52:34;9.30;;;8.50;;
66402;SDS011;53212;52.112;5.144;2023-05-07T07:55:00;9.60;;;8.80;;
66402;SDS011;53212;52.112;5.144;2023-05-07T07:57:25;9.00;;;8.20;;
66402;SDS011;53212;52.112;5.144;2023-05-07T07:59:51;9.00;;;8.20;;
66402;SDS011;53212;52.112;5.144;2023-05-07T08:02:17;9.10;;;8.20;;
66402;SDS011;53212;52.112;5.144;2023-05-07T08:04:42;9.20;;;8.30;;
66402;SDS011;53212;52.112;5.144;2023-05-07T08:07:11;10.50;;;8.60;;
66402;SDS011;53212;52.112;5.144;2023-05-07T08:09:39;10.30;;;8.20;;
66402;SDS011;53212;52.112;5.144;2023-05-07T08:12:06;9.00;;;8.20;;
66402;SDS011;53212;52.112;5.144;2023-05-07T08:14:33;8.70;;;8.00;;
66402;SDS011;53212;52.112;5.144;2023-05-07T08:16:59;8.10;;;7.40;;
66402;SDS011;53212;52.112;5.144;2023-05-07T08:19:24;9.40;;;8.50;;
66402;SDS011;53212;52.112;5.144;2023-05-07T08:21:50;9.00;;;8.20;;
66402;SDS011;53212;52.112;5.144;2023-05-07T08:24:15;9.30;;;8.00;;
66402;SDS011;53212;52.112;5.144;2023-05-07T08:26:41;8.70;;;7.90;;
66402;SDS011;53212;52.112;5.144;2023-05-07T08:29:08;9.10;;;8.30;;
66402;SDS011;53212;52.112;5.144;2023-05-07T08:31:33;9.00;;;8.20;;
66402;SDS011;53212;52.112;5.144;2023-05-07T08:33:59;9.50;;;8.60;;
66402;SDS011;53212;52.112;5.144;2023-05-07T08:36:25;10.80;;;8.60;;
66402;SDS011;53212;52.112;5.144;2023-05-07T08:38:51;9.70;;;8.70;;
66402;SDS011;53212;52.112;5.144;2023-05-07T08:41:17;8.50;;;7.70;;
66402;SDS011;53212;52.112;5.144;2023-05-07T08:43:47;8.50;;;7.80;;
66402;SDS011;53212;52.112;5.144;2023-05-07T08:46:21;7.90;;;7.30;;
66402;SDS011;53212;52.112;5.144;2023-05-07T08:48:51;8.80;;;7.50;;
66402;SDS011;53212;52.112;5.144;2023-05-07T08:51:19;9.10;;;7.90;;
66402;SDS011;53212;52.112;5.144;2023-05-07T08:53:47;8.10;;;7.30;;
66402;SDS011;53212;52.112;5.144;2023-05-07T08:56:17;8.50;;;7.60;;
66402;SDS011;53212;52.112;5.144;2023-05-07T08:58:43;8.70;;;7.80;;
66402;SDS011;53212;52.112;5.144;2023-05-07T09:01:14;8.20;;;7.50;;
66402;SDS011;53212;52.112;5.144;2023-05-07T09:03:42;7.80;;;7.10;;
66402;SDS011;53212;52.112;5.144;2023-05-07T09:06:10;8.00;;;7.20;;
66402;SDS011;53212;52.112;5.144;2023-05-07T09:08:36;7.30;;;6.70;;
66402;SDS011;53212;52.112;5.144;2023-05-07T09:11:01;8.10;;;7.30;;
66402;SDS011;53212;52.112;5.144;2023-05-07T09:13:28;7.90;;;7.20;;
66402;SDS011;53212;52.112;5.144;2023-05-07T09:15:54;7.90;;;7.10;;
66402;SDS011;53212;52.112;5.144;2023-05-07T09:18:20;8.10;;;7.40;;
66402;SDS011;53212;52.112;5.144;2023-05-07T09:20:45;10.20;;;7.20;;
66402;SDS011;53212;52.112;5.144;2023-05-07T09:23:10;8.30;;;7.20;;
66402;SDS011;53212;52.112;5.144;2023-05-07T09:25:36;7.60;;;6.90;;
66402;SDS011;53212;52.112;5.144;2023-05-07T09:28:03;7.80;;;7.00;;
66402;SDS011;53212;52.112;5.144;2023-05-07T09:30:31;9.30;;;7.60;;
66402;SDS011;53212;52.112;5.144;2023-05-07T09:33:01;8.60;;;7.70;;
66402;SDS011;53212;52.112;5.144;2023-05-07T09:35:29;7.20;;;6.40;;
66402;SDS011;53212;52.112;5.144;2023-05-07T09:37:56;7.00;;;6.30;;
66402;SDS011;53212;52.112;5.144;2023-05-07T09:40:25;7.10;;;6.40;;
66402;SDS011;53212;52.112;5.144;2023-05-07T09:42:52;8.20;;;7.10;;
66402;SDS011;53212;52.112;5.144;2023-05-07T09:45:25;8.50;;;6.80;;
66402;SDS011;53212;52.112;5.144;2023-05-07T09:47:54;8.70;;;7.10;;
66402;SDS011;53212;52.112;5.144;2023-05-07T09:50:29;7.70;;;7.00;;
66402;SDS011;53212;52.112;5.144;2023-05-07T09:53:01;7.50;;;6.70;;
66402;SDS011;53212;52.112;5.144;2023-05-07T09:55:28;6.80;;;6.10;;
66402;SDS011;53212;52.112;5.144;2023-05-07T09:57:55;8.00;;;6.90;;
66402;SDS011;53212;52.112;5.144;2023-05-07T10:00:21;7.10;;;6.40;;
66402;SDS011;53212;52.112;5.144;2023-05-07T10:02:48;7.10;;;6.30;;
66402;SDS011;53212;52.112;5.144;2023-05-07T10:05:18;7.30;;;6.60;;
66402;SDS011;53212;52.112;5.144;2023-05-07T10:07:46;8.00;;;7.00;;
66402;SDS011;53212;52.112;5.144;2023-05-07T10:10:11;8.00;;;6.70;;
66402;SDS011;53212;52.112;5.144;2023-05-07T10:12:38;7.30;;;6.50;;
66402;SDS011;53212;52.112;5.144;2023-05-07T10:15:09;8.00;;;6.70;;
66402;SDS011;53212;52.112;5.144;2023-05-07T10:17:36;8.20;;;6.30;;
66402;SDS011;53212;52.112;5.144;2023-05-07T10:20:04;5.40;;;4.60;;
66402;SDS011;53212;52.112;5.144;2023-05-07T10:22:44;5.60;;;4.80;;
66402;SDS011;53212;52.112;5.144;2023-05-07T10:27:43;3.90;;;3.60;;
66402;SDS011;53212;52.112;5.144;2023-05-07T10:30:38;6.50;;;3.90;;
66402;SDS011;53212;52.112;5.144;2023-05-07T10:35:41;3.00;;;2.80;;
66402;SDS011;53212;52.112;5.144;2023-05-07T10:38:09;4.90;;;3.60;;
66402;SDS011;53212;52.112;5.144;2023-05-07T10:40:35;4.40;;;3.30;;
66402;SDS011;53212;52.112;5.144;2023-05-07T10:43:02;5.90;;;2.40;;
66402;SDS011;53212;52.112;5.144;2023-05-07T10:45:30;3.60;;;2.60;;
66402;SDS011;53212;52.112;5.144;2023-05-07T10:48:12;4.70;;;2.10;;
66402;SDS011;53212;52.112;5.144;2023-05-07T10:50:43;4.10;;;2.40;;
66402;SDS011;53212;52.112;5.144;2023-05-07T10:55:48;3.70;;;2.50;;
66402;SDS011;53212;52.112;5.144;2023-05-07T11:00:50;2.90;;;2.40;;
66402;SDS011;53212;52.112;5.144;2023-05-07T11:03:16;3.50;;;2.80;;
66402;SDS011;53212;52.112;5.144;2023-05-07T11:05:42;4.00;;;2.90;;
66402;SDS011;53212;52.112;5.144;2023-05-07T11:08:08;4.10;;;3.10;;
66402;SDS011;53212;52.112;5.144;2023-05-07T11:13:14;9.00;;;3.20;;
66402;SDS011;53212;52.112;5.144;2023-05-07T11:15:48;2.90;;;2.40;;
66402;SDS011;53212;52.112;5.144;2023-05-07T11:18:16;5.60;;;2.60;;
66402;SDS011;53212;52.112;5.144;2023-05-07T11:20:59;6.00;;;3.30;;
66402;SDS011;53212;52.112;5.144;2023-05-07T11:25:59;3.60;;;3.20;;
66402;SDS011;53212;52.112;5.144;2023-05-07T11:28:28;5.40;;;3.10;;
66402;SDS011;53212;52.112;5.144;2023-05-07T11:30:53;4.20;;;2.90;;
66402;SDS011;53212;52.112;5.144;2023-05-07T11:33:19;3.40;;;3.10;;
66402;SDS011;53212;52.112;5.144;2023-05-07T11:35:45;3.80;;;2.80;;
66402;SDS011;53212;52.112;5.144;2023-05-07T11:38:12;3.70;;;2.40;;
66402;SDS011;53212;52.112;5.144;2023-05-07T11:41:07;3.20;;;2.80;;
66402;SDS011;53212;52.112;5.144;2023-05-07T11:43:33;4.50;;;2.90;;
66402;SDS011;53212;52.112;5.144;2023-05-07T11:46:11;4.10;;;2.80;;
66402;SDS011;53212;52.112;5.144;2023-05-07T11:48:38;4.30;;;3.40;;
66402;SDS011;53212;52.112;5.144;2023-05-07T11:51:05;4.80;;;3.30;;
66402;SDS011;53212;52.112;5.144;2023-05-07T11:53:39;4.10;;;3.50;;
66402;SDS011;53212;52.112;5.144;2023-05-07T11:56:09;4.50;;;3.10;;
66402;SDS011;53212;52.112;5.144;2023-05-07T11:58:36;4.60;;;3.00;;
66402;SDS011;53212;52.112;5.144;2023-05-07T12:01:02;6.10;;;3.50;;
66402;SDS011;53212;52.112;5.144;2023-05-07T12:03:27;3.60;;;3.20;;
66402;SDS011;53212;52.112;5.144;2023-05-07T12:05:53;4.20;;;3.20;;
66402;SDS011;53212;52.112;5.144;2023-05-07T12:08:20;3.30;;;3.00;;
66402;SDS011;53212;52.112;5.144;2023-05-07T12:10:48;3.80;;;3.30;;
66402;SDS011;53212;52.112;5.144;2023-05-07T12:13:18;5.90;;;2.60;;
66402;SDS011;53212;52.112;5.144;2023-05-07T12:15:45;5.40;;;4.10;;
66402;SDS011;53212;52.112;5.144;2023-05-07T12:18:11;5.50;;;4.50;;
66402;SDS011;53212;52.112;5.144;2023-05-07T12:20:37;5.10;;;4.60;;
66402;SDS011;53212;52.112;5.144;2023-05-07T12:23:04;5.80;;;4.30;;
66402;SDS011;53212;52.112;5.144;2023-05-07T12:25:40;4.70;;;2.40;;
66402;SDS011;53212;52.112;5.144;2023-05-07T12:28:15;4.10;;;2.70;;
66402;SDS011;53212;52.112;5.144;2023-05-07T12:30:42;7.00;;;4.10;;
66402;SDS011;53212;52.112;5.144;2023-05-07T12:33:09;4.30;;;3.60;;
66402;SDS011;53212;52.112;5.144;2023-05-07T12:35:41;4.10;;;3.30;;
66402;SDS011;53212;52.112;5.144;2023-05-07T12:38:17;6.50;;;3.80;;
66402;SDS011;53212;52.112;5.144;2023-05-07T12:40:43;5.20;;;4.00;;
66402;SDS011;53212;52.112;5.144;2023-05-07T12:46:04;6.10;;;3.00;;
66402;SDS011;53212;52.112;5.144;2023-05-07T12:48:33;4.90;;;3.10;;
66402;SDS011;53212;52.112;5.144;2023-05-07T12:51:01;5.50;;;4.00;;
66402;SDS011;53212;52.112;5.144;2023-05-07T12:53:28;5.60;;;3.60;;
66402;SDS011;53212;52.112;5.144;2023-05-07T12:55:55;4.70;;;3.70;;
66402;SDS011;53212;52.112;5.144;2023-05-07T12:58:29;5.70;;;4.10;;
66402;SDS011;53212;52.112;5.144;2023-05-07T13:00:57;4.60;;;4.00;;
66402;SDS011;53212;52.112;5.144;2023-05-07T13:03:34;5.60;;;3.80;;
66402;SDS011;53212;52.112;5.144;2023-05-07T13:06:08;6.80;;;3.30;;
66402;SDS011;53212;52.112;5.144;2023-05-07T13:08:40;7.10;;;3.30;;
66402;SDS011;53212;52.112;5.144;2023-05-07T13:11:08;3.80;;;2.90;;
66402;SDS011;53212;52.112;5.144;2023-05-07T13:13:36;4.50;;;3.00;;
66402;SDS011;53212;52.112;5.144;2023-05-07T13:16:03;6.30;;;3.60;;
66402;SDS011;53212;52.112;5.144;2023-05-07T13:18:30;7.20;;;3.20;;
66402;SDS011;53212;52.112;5.144;2023-05-07T13:20:56;4.20;;;2.30;;
66402;SDS011;53212;52.112;5.144;2023-05-07T13:23:22;6.30;;;3.20;;
66402;SDS011;53212;52.112;5.144;2023-05-07T13:25:48;4.10;;;2.60;;
66402;SDS011;53212;52.112;5.144;2023-05-07T13:28:14;5.30;;;2.40;;
66402;SDS011;53212;52.112;5.144;2023-05-07T13:30:40;4.90;;;3.20;;
66402;SDS011;53212;52.112;5.144;2023-05-07T13:33:05;5.70;;;3.00;;
66402;SDS011;53212;52.112;5.144;2023-05-07T13:35:31;4.30;;;2.80;;
66402;SDS011;53212;52.112;5.144;2023-05-07T13:37:57;3.80;;;2.70;;
66402;SDS011;53212;52.112;5.144;2023-05-07T13:40:23;4.50;;;2.50;;
66402;SDS011;53212;52.112;5.144;2023-05-07T13:42:49;5.60;;;3.20;;
66402;SDS011;53212;52.112;5.144;2023-05-07T13:45:16;3.70;;;2.80;;
66402;SDS011;53212;52.112;5.144;2023-05-07T13:47:42;3.40;;;2.60;;
66402;SDS011;53212;52.112;5.144;2023-05-07T13:50:09;3.60;;;3.10;;
66402;SDS011;53212;52.112;5.144;2023-05-07T13:52:37;5.50;;;2.70;;
66402;SDS011;53212;52.112;5.144;2023-05-07T13:55:03;4.20;;;2.00;;
66402;SDS011;53212;52.112;5.144;2023-05-07T13:57:29;3.70;;;2.10;;
66402;SDS011;53212;52.112;5.144;2023-05-07T13:59:55;3.40;;;1.70;;
66402;SDS011;53212;52.112;5.144;2023-05-07T14:02:20;3.60;;;1.60;;
66402;SDS011;53212;52.112;5.144;2023-05-07T14:04:46;3.30;;;2.30;;
66402;SDS011;53212;52.112;5.144;2023-05-07T14:07:11;5.10;;;2.20;;
66402;SDS011;53212;52.112;5.144;2023-05-07T14:09:37;2.80;;;2.30;;
66402;SDS011;53212;52.112;5.144;2023-05-07T14:12:03;6.10;;;1.90;;
66402;SDS011;53212;52.112;5.144;2023-05-07T14:14:28;4.20;;;2.20;;
66402;SDS011;53212;52.112;5.144;2023-05-07T14:16:54;5.60;;;1.70;;
66402;SDS011;53212;52.112;5.144;2023-05-07T14:19:19;3.10;;;1.80;;
66402;SDS011;53212;52.112;5.144;2023-05-07T14:21:44;3.20;;;1.90;;
66402;SDS011;53212;52.112;5.144;2023-05-07T14:24:10;2.80;;;1.90;;
66402;SDS011;53212;52.112;5.144;2023-05-07T14:26:35;2.70;;;1.80;;
66402;SDS011;53212;52.112;5.144;2023-05-07T14:29:01;3.60;;;2.10;;
66402;SDS011;53212;52.112;5.144;2023-05-07T14:31:27;5.50;;;2.40;;
66402;SDS011;53212;52.112;5.144;2023-05-07T14:33:52;3.20;;;2.10;;
66402;SDS011;53212;52.112;5.144;2023-05-07T14:36:18;6.10;;;2.40;;
66402;SDS011;53212;52.112;5.144;2023-05-07T14:38:48;4.30;;;2.30;;
66402;SDS011;53212;52.112;5.144;2023-05-07T14:41:13;3.40;;;3.10;;
66402;SDS011;53212;52.112;5.144;2023-05-07T14:43:40;5.70;;;4.50;;
66402;SDS011;53212;52.112;5.144;2023-05-07T14:46:05;7.60;;;5.20;;
66402;SDS011;53212;52.112;5.144;2023-05-07T14:48:30;7.50;;;6.70;;
66402;SDS011;53212;52.112;5.144;2023-05-07T14:50:56;7.40;;;6.50;;
66402;SDS011;53212;52.112;5.144;2023-05-07T14:53:21;8.20;;;6.50;;
66402;SDS011;53212;52.112;5.144;2023-05-07T14:55:48;10.70;;;6.80;;
66402;SDS011;53212;52.112;5.144;2023-05-07T14:58:13;6.00;;;4.00;;